createdAt,value
2019-02-23T00:01:16.792Z,7.00
2019-02-23T00:04:42.402Z,7.00
2019-02-23T00:08:08.118Z,7.00
2019-02-23T00:11:33.794Z,7.00
2019-02-23T00:14:59.479Z,6.90
2019-02-23T00:18:25.164Z,6.90
2019-02-23T00:21:50.764Z,6.90
2019-02-23T00:25:16.411Z,6.80
2019-02-23T00:28:42.053Z,6.80
2019-02-23T00:32:07.676Z,6.80
2019-02-23T00:35:33.753Z,6.80
2019-02-23T00:38:59.340Z,6.70
2019-02-23T00:42:25.287Z,6.70
2019-02-23T00:45:50.890Z,6.70
2019-02-23T00:49:17.147Z,6.70
2019-02-23T00:52:42.841Z,6.60
2019-02-23T00:56:08.493Z,6.60
2019-02-23T00:59:34.112Z,6.60
2019-02-23T01:02:59.706Z,6.50
2019-02-23T01:06:25.365Z,6.50
2019-02-23T01:09:51.319Z,6.50
2019-02-23T01:13:17.169Z,6.50
2019-02-23T01:16:43.100Z,6.40
2019-02-23T01:20:11.039Z,6.50
2019-02-23T01:23:36.685Z,6.40
2019-02-23T01:27:02.299Z,6.40
2019-02-23T01:30:27.930Z,6.30
2019-02-23T01:33:53.549Z,6.30
2019-02-23T01:37:19.206Z,6.30
2019-02-23T01:40:44.831Z,6.30
2019-02-23T01:44:10.451Z,6.30
2019-02-23T01:47:36.043Z,6.20
2019-02-23T01:51:01.644Z,6.20
2019-02-23T01:54:27.249Z,6.20
2019-02-23T01:57:52.901Z,6.20
2019-02-23T02:01:18.492Z,6.10
2019-02-23T02:04:44.150Z,6.00
2019-02-23T02:08:09.783Z,5.90
2019-02-23T02:11:35.520Z,5.90
2019-02-23T02:15:01.221Z,5.80
2019-02-23T02:18:27.044Z,5.70
2019-02-23T02:21:52.720Z,5.60
2019-02-23T02:25:18.716Z,5.60
2019-02-23T02:28:44.383Z,5.50
2019-02-23T02:32:10.025Z,5.50
2019-02-23T02:35:35.661Z,5.50
2019-02-23T02:39:01.281Z,5.50
2019-02-23T02:42:26.915Z,5.50
2019-02-23T02:45:52.605Z,5.50
2019-02-23T02:49:18.278Z,5.50
2019-02-23T02:52:43.946Z,5.50
2019-02-23T02:56:09.632Z,5.50
2019-02-23T02:59:35.267Z,5.40
2019-02-23T03:03:00.896Z,5.30
2019-02-23T03:06:26.927Z,5.20
2019-02-23T03:09:52.595Z,5.10
2019-02-23T03:13:18.189Z,5.10
2019-02-23T03:16:44.127Z,5.10
2019-02-23T03:20:10.554Z,5.10
2019-02-23T03:23:36.514Z,5.00
2019-02-23T03:27:02.129Z,5.00
2019-02-23T03:30:27.805Z,4.90
2019-02-23T03:33:53.411Z,4.80
2019-02-23T03:37:19.018Z,4.80
2019-02-23T03:40:44.658Z,4.70
2019-02-23T03:44:10.257Z,4.70
2019-02-23T03:47:35.889Z,4.60
2019-02-23T03:51:01.476Z,4.50
2019-02-23T03:54:27.103Z,4.60
2019-02-23T03:57:52.730Z,4.90
2019-02-23T04:01:18.381Z,5.00
2019-02-23T04:04:44.057Z,5.10
2019-02-23T04:08:09.811Z,5.30
2019-02-23T04:11:35.454Z,5.30
2019-02-23T04:15:01.689Z,5.40
2019-02-23T04:18:27.280Z,5.40
2019-02-23T04:21:52.934Z,5.40
2019-02-23T04:25:18.661Z,5.40
2019-02-23T04:28:44.293Z,5.40
2019-02-23T04:32:09.940Z,5.50
2019-02-23T04:35:35.900Z,5.60
2019-02-23T04:39:02.215Z,5.70
2019-02-23T04:42:27.873Z,5.80
2019-02-23T04:45:53.483Z,5.80
2019-02-23T04:49:19.161Z,5.70
2019-02-23T04:52:44.842Z,5.70
2019-02-23T04:56:10.453Z,5.70
2019-02-23T04:59:36.027Z,5.60
2019-02-23T05:03:01.672Z,5.50
2019-02-23T05:06:27.297Z,5.50
2019-02-23T05:09:52.898Z,5.40
2019-02-23T05:13:18.595Z,5.40
2019-02-23T05:16:44.218Z,5.30
2019-02-23T05:20:10.474Z,5.30
2019-02-23T05:23:36.077Z,5.20
2019-02-23T05:27:01.740Z,5.10
2019-02-23T05:30:31.560Z,5.00
2019-02-23T05:33:54.730Z,5.00
2019-02-23T05:37:20.347Z,5.00
2019-02-23T05:40:46.052Z,4.90
2019-02-23T05:44:11.700Z,4.90
2019-02-23T05:47:37.372Z,4.80
2019-02-23T05:51:03.041Z,4.80
2019-02-23T05:54:28.798Z,4.70
2019-02-23T05:57:54.438Z,4.70
2019-02-23T06:01:20.126Z,4.70
2019-02-23T06:04:48.130Z,4.70
2019-02-23T06:08:13.784Z,4.70
2019-02-23T06:11:39.342Z,4.70
2019-02-23T06:15:05.249Z,4.60
2019-02-23T06:18:31.117Z,4.70
2019-02-23T06:21:56.869Z,4.60
2019-02-23T06:25:22.934Z,4.60
2019-02-23T06:28:48.532Z,4.50
2019-02-23T06:32:14.228Z,4.40
2019-02-23T06:35:39.818Z,4.40
2019-02-23T06:39:06.444Z,4.40
2019-02-23T06:42:32.115Z,4.30
2019-02-23T06:45:57.825Z,4.30
2019-02-23T06:49:23.477Z,4.30
2019-02-23T06:52:49.163Z,4.30
2019-02-23T06:56:15.397Z,4.20
2019-02-23T06:59:41.165Z,4.30
2019-02-23T07:03:07.260Z,4.30
2019-02-23T07:06:34.018Z,4.30
2019-02-23T07:09:59.716Z,4.30
2019-02-23T07:13:25.367Z,4.30
2019-02-23T07:16:51.257Z,4.40
2019-02-23T07:20:43.728Z,4.40
2019-02-23T07:24:02.200Z,4.50
2019-02-23T07:27:27.842Z,4.50
2019-02-23T07:30:53.579Z,4.60
2019-02-23T07:34:28.015Z,4.60
2019-02-23T07:37:53.602Z,4.70
2019-02-23T07:41:19.400Z,4.70
2019-02-23T07:44:45.430Z,4.70
2019-02-23T07:48:12.452Z,4.70
2019-02-23T07:51:38.169Z,4.80
2019-02-23T07:55:03.686Z,4.80
2019-02-23T07:58:29.647Z,4.90
2019-02-23T08:01:55.286Z,4.90
2019-02-23T08:05:20.938Z,5.00
2019-02-23T08:08:46.675Z,5.00
2019-02-23T08:12:13.570Z,5.10
2019-02-23T08:15:39.555Z,5.10
2019-02-23T08:19:05.174Z,5.20
2019-02-23T08:22:37.427Z,5.20
2019-02-23T08:25:58.225Z,5.30
2019-02-23T08:29:23.859Z,5.40
2019-02-23T08:32:49.510Z,5.50
2019-02-23T08:36:15.331Z,5.60
2019-02-23T08:39:40.962Z,5.70
2019-02-23T08:43:06.663Z,5.80
2019-02-23T08:46:32.622Z,5.90
2019-02-23T08:49:58.338Z,5.90
2019-02-23T08:53:24.740Z,6.00
2019-02-23T08:56:50.397Z,6.10
2019-02-23T09:00:17.355Z,6.20
2019-02-23T09:03:43.129Z,6.30
2019-02-23T09:07:08.881Z,6.30
2019-02-23T09:10:34.558Z,6.30
2019-02-23T09:14:00.154Z,6.50
2019-02-23T09:17:25.856Z,6.50
2019-02-23T09:20:51.983Z,6.60
2019-02-23T09:24:17.933Z,6.70
2019-02-23T09:27:44.455Z,6.80
2019-02-23T09:31:10.144Z,7.00
2019-02-23T09:34:35.843Z,7.20
2019-02-23T09:38:03.265Z,7.60
2019-02-23T09:41:28.865Z,8.10
2019-02-23T09:44:54.607Z,8.50
2019-02-23T09:48:20.264Z,9.20
2019-02-23T09:51:45.998Z,10.30
2019-02-23T09:55:11.833Z,10.80
2019-02-23T09:58:37.445Z,11.40
2019-02-23T10:02:03.166Z,12.00
2019-02-23T10:05:29.080Z,12.40
2019-02-23T10:08:54.818Z,12.80
2019-02-23T10:12:20.557Z,13.90
2019-02-23T10:15:46.637Z,14.10
2019-02-23T10:19:12.551Z,14.60
2019-02-23T10:22:39.652Z,14.80
2019-02-23T10:26:06.010Z,14.60
2019-02-23T10:29:31.937Z,15.00
2019-02-23T10:32:57.745Z,15.30
2019-02-23T10:36:23.429Z,16.00
2019-02-23T10:39:49.020Z,15.90
2019-02-23T10:43:14.993Z,15.90
2019-02-23T10:50:06.449Z,16.30
2019-02-23T10:53:33.066Z,15.80
2019-02-23T10:56:59.384Z,15.90
2019-02-23T11:00:25.825Z,15.90
2019-02-23T11:03:51.444Z,15.90
2019-02-23T11:07:17.374Z,15.80
2019-02-23T11:10:43.331Z,16.10
2019-02-23T11:14:09.034Z,16.10
2019-02-23T11:17:35.205Z,16.00
2019-02-23T11:21:00.946Z,16.30
2019-02-23T11:24:26.602Z,16.30
2019-02-23T11:27:53.498Z,16.70
2019-02-23T11:31:19.147Z,17.60
2019-02-23T11:34:44.860Z,18.00
2019-02-23T11:38:10.508Z,18.30
2019-02-23T11:41:36.122Z,18.70
2019-02-23T11:45:01.766Z,18.00
2019-02-23T11:48:27.464Z,17.60
2019-02-23T11:51:53.159Z,17.50
2019-02-23T11:55:19.695Z,17.40
2019-02-23T11:58:45.622Z,17.80
2019-02-23T12:02:11.245Z,18.70
2019-02-23T12:05:36.906Z,19.10
2019-02-23T12:09:02.814Z,19.50
2019-02-23T12:12:28.383Z,19.20
2019-02-23T12:15:54.046Z,19.00
2019-02-23T12:19:19.709Z,18.60
2019-02-23T12:22:45.386Z,18.80
2019-02-23T12:26:11.094Z,18.60
2019-02-23T12:29:36.735Z,18.70
2019-02-23T12:33:02.537Z,18.80
2019-02-23T12:36:28.446Z,19.10
2019-02-23T12:39:54.103Z,19.40
2019-02-23T12:43:19.755Z,19.20
2019-02-23T12:46:45.692Z,18.80
2019-02-23T12:50:11.450Z,18.20
2019-02-23T12:53:37.143Z,18.30
2019-02-23T12:57:02.749Z,18.30
2019-02-23T13:00:28.783Z,19.40
2019-02-23T13:03:54.448Z,19.90
2019-02-23T13:07:20.089Z,20.80
2019-02-23T13:10:46.274Z,21.20
2019-02-23T13:15:02.803Z,21.50
2019-02-23T13:19:30.789Z,21.60
2019-02-23T13:23:47.667Z,21.90
2019-02-23T13:28:02.523Z,21.70
2019-02-23T13:32:43.776Z,20.90
2019-02-23T13:37:45.827Z,21.30
2019-02-23T13:42:01.014Z,21.80
2019-02-23T13:46:08.357Z,21.00
2019-02-23T13:50:43.254Z,21.30
2019-02-23T13:55:13.842Z,21.60
2019-02-23T13:59:18.809Z,21.70
2019-02-23T14:03:27.531Z,21.90
2019-02-23T14:07:33.710Z,22.90
2019-02-23T14:12:11.974Z,23.50
2019-02-23T14:16:29.672Z,24.30
2019-02-23T14:20:26.553Z,24.50
2019-02-23T14:24:52.592Z,24.50
2019-02-23T14:29:34.573Z,24.60
2019-02-23T14:33:57.581Z,25.30
2019-02-23T14:38:20.123Z,26.00
2019-02-23T14:42:18.919Z,26.90
2019-02-23T14:46:54.554Z,27.10
2019-02-23T14:50:59.451Z,27.00
2019-02-23T14:55:04.347Z,27.80
2019-02-23T14:59:24.472Z,27.40
2019-02-23T15:04:00.466Z,27.90
2019-02-23T15:08:14.498Z,27.80
2019-02-23T15:16:17.496Z,27.20
2019-02-23T15:20:16.630Z,27.20
2019-02-23T15:24:36.239Z,26.60
2019-02-23T15:28:47.911Z,25.40
2019-02-23T15:33:14.957Z,23.40
2019-02-23T15:37:57.506Z,22.70
2019-02-23T15:42:18.916Z,22.80
2019-02-23T15:46:15.126Z,23.20
2019-02-23T15:49:40.793Z,23.10
2019-02-23T15:53:06.689Z,23.00
2019-02-23T15:56:32.458Z,22.30
2019-02-23T15:59:58.254Z,21.90
2019-02-23T16:03:23.855Z,21.20
2019-02-23T16:06:49.565Z,20.70
2019-02-23T16:10:17.769Z,20.40
2019-02-23T16:13:42.906Z,20.50
2019-02-23T16:17:08.556Z,20.40
2019-02-23T16:20:34.187Z,19.90
2019-02-23T16:24:01.822Z,18.80
2019-02-23T16:27:27.747Z,17.70
2019-02-23T16:30:53.437Z,16.90
2019-02-23T16:34:19.058Z,16.10
2019-02-23T16:37:44.757Z,15.30
2019-02-23T16:41:10.382Z,14.80
2019-02-23T16:44:36.038Z,14.50
2019-02-23T16:48:01.787Z,14.10
2019-02-23T16:51:27.432Z,13.70
2019-02-23T16:54:53.010Z,13.40
2019-02-23T16:58:18.737Z,13.10
2019-02-23T17:01:44.368Z,12.90
2019-02-23T17:05:10.412Z,12.80
2019-02-23T17:08:36.073Z,12.70
2019-02-23T17:12:02.013Z,12.50
2019-02-23T17:15:27.650Z,12.40
2019-02-23T17:18:53.339Z,12.30
2019-02-23T17:22:19.011Z,12.10
2019-02-23T17:25:44.627Z,12.00
2019-02-23T17:29:10.422Z,11.80
2019-02-23T17:32:36.108Z,11.70
2019-02-23T17:36:01.729Z,11.60
2019-02-23T17:39:27.426Z,11.50
2019-02-23T17:42:53.103Z,11.50
2019-02-23T17:46:19.110Z,11.40
2019-02-23T17:49:45.695Z,11.40
2019-02-23T17:53:11.492Z,11.30
2019-02-23T17:56:37.110Z,11.20
2019-02-23T18:00:02.817Z,11.10
2019-02-23T18:03:28.466Z,11.00
2019-02-23T18:06:54.055Z,10.90
2019-02-23T18:10:20.053Z,10.80
2019-02-23T18:13:45.682Z,10.70
2019-02-23T18:17:11.753Z,10.60
2019-02-23T18:20:37.417Z,10.50
2019-02-23T18:24:03.438Z,10.40
2019-02-23T18:27:29.115Z,10.30
2019-02-23T18:30:55.399Z,10.20
2019-02-23T18:34:21.405Z,10.20
2019-02-23T18:37:47.303Z,10.10
2019-02-23T18:41:12.983Z,10.10
2019-02-23T18:44:38.630Z,10.00
2019-02-23T18:48:04.238Z,10.00
2019-02-23T18:51:29.851Z,10.00
2019-02-23T18:54:55.725Z,9.90
2019-02-23T18:58:21.408Z,9.80
2019-02-23T19:01:47.047Z,9.70
2019-02-23T19:05:13.621Z,9.70
2019-02-23T19:08:39.261Z,9.70
2019-02-23T19:12:05.113Z,9.60
2019-02-23T19:15:30.831Z,9.50
2019-02-23T19:18:56.472Z,9.50
2019-02-23T19:22:22.101Z,9.40
2019-02-23T19:25:47.650Z,9.30
2019-02-23T19:29:16.420Z,9.30
2019-02-23T19:32:42.072Z,9.20
2019-02-23T19:36:07.756Z,9.20
2019-02-23T19:39:33.423Z,9.10
2019-02-23T19:42:59.015Z,9.10
2019-02-23T19:46:25.162Z,9.10
2019-02-23T19:49:53.814Z,9.00
2019-02-23T19:53:19.686Z,8.90
2019-02-23T19:56:47.046Z,8.80
2019-02-23T20:00:12.923Z,8.70
2019-02-23T20:03:38.542Z,8.60
2019-02-23T20:07:04.217Z,8.60
2019-02-23T20:10:29.837Z,8.60
2019-02-23T20:13:55.421Z,8.60
2019-02-23T20:17:21.028Z,8.60
2019-02-23T20:20:46.683Z,8.60
2019-02-23T20:24:12.360Z,8.60
2019-02-23T20:27:38.076Z,8.60
2019-02-23T20:31:03.678Z,8.60
2019-02-23T20:34:29.282Z,8.60
2019-02-23T20:37:55.234Z,8.60
2019-02-23T20:41:21.529Z,8.50
2019-02-23T20:44:47.191Z,8.50
2019-02-23T20:48:12.846Z,8.40
2019-02-23T20:51:38.563Z,8.40
2019-02-23T20:55:04.795Z,8.40
2019-02-23T20:58:30.489Z,8.30
2019-02-23T21:02:00.090Z,8.30
2019-02-23T21:05:26.078Z,8.20
2019-02-23T21:08:51.891Z,8.20
2019-02-23T21:12:17.692Z,8.10
2019-02-23T21:15:43.546Z,8.10
2019-02-23T21:19:09.458Z,8.10
2019-02-23T21:22:35.375Z,8.10
2019-02-23T21:26:01.384Z,8.10
2019-02-23T21:29:27.352Z,8.10
2019-02-23T21:32:52.974Z,8.00
2019-02-23T21:36:20.416Z,8.00
2019-02-23T21:39:46.163Z,7.90
2019-02-23T21:43:13.519Z,7.90
2019-02-23T21:46:39.775Z,7.90
2019-02-23T21:50:05.638Z,7.80
2019-02-23T21:53:32.193Z,7.80
2019-02-23T21:56:59.607Z,7.80
2019-02-23T22:00:25.270Z,7.70
2019-02-23T22:03:51.231Z,7.70
2019-02-23T22:07:16.919Z,7.70
2019-02-23T22:10:45.615Z,7.60
2019-02-23T22:14:11.832Z,7.60
2019-02-23T22:17:37.681Z,7.50
2019-02-23T22:21:03.814Z,7.50
2019-02-23T22:24:29.935Z,7.50
2019-02-23T22:27:57.125Z,7.50
2019-02-23T22:31:22.969Z,7.40
2019-02-23T22:34:48.679Z,7.40
2019-02-23T22:38:14.258Z,7.30
2019-02-23T22:41:39.978Z,7.30
2019-02-23T22:45:08.145Z,7.30
2019-02-23T22:48:33.957Z,7.30
2019-02-23T22:51:59.540Z,7.20
2019-02-23T22:55:25.352Z,7.20
2019-02-23T22:58:51.177Z,7.20
2019-02-23T23:02:17.192Z,7.10
2019-02-23T23:05:43.125Z,7.10
2019-02-23T23:09:14.963Z,7.10
2019-02-23T23:12:42.506Z,7.10
2019-02-23T23:16:08.398Z,7.10
2019-02-23T23:19:34.264Z,7.00
2019-02-23T23:23:00.073Z,7.00
2019-02-23T23:26:25.725Z,7.00
2019-02-23T23:29:51.628Z,7.00
2019-02-23T23:33:18.132Z,6.90
2019-02-23T23:36:44.096Z,6.90
2019-02-23T23:40:09.854Z,6.90
2019-02-23T23:43:35.776Z,6.80
2019-02-23T23:47:01.485Z,6.70
2019-02-23T23:50:27.490Z,6.60
2019-02-23T23:53:53.141Z,6.50
2019-02-23T23:57:18.754Z,6.40
